Time;durP1;ratioP1;P1;durP2;ratioP2;P2;SDS_P1;SDS_P2;PMS_P1;PMS_P2;Temp;Humidity;BMP_temperature;BMP_pressure;BME280_temperature;BME280_humidity;BME280_pressure;Samples;Min_cycle;Max_cycle;Signal;HPM_P1;HPM_P2
2022/02/21 00:00:10;;;;;;;6.77;4.63;;;3.00;99.90;3.60;96159.00;;;;5094370;28;20924;-83
2022/02/21 00:02:59;;;;;;;5.50;4.30;;;3.00;99.90;3.50;96155.00;;;;5114199;27;20451;-82
2022/02/21 00:05:48;;;;;;;5.57;3.87;;;2.90;99.90;3.70;96148.00;;;;5114698;27;20648;-84
2022/02/21 00:08:37;;;;;;;4.17;3.77;;;2.90;99.90;3.90;96150.00;;;;5119793;27;20424;-83
2022/02/21 00:11:25;;;;;;;6.10;4.73;;;3.00;99.90;3.90;96137.00;;;;5097724;28;20475;-84
2022/02/21 00:14:16;;;;;;;5.00;4.30;;;3.00;99.90;3.30;96142.00;;;;5109547;28;20417;-83
2022/02/21 00:17:05;;;;;;;4.70;4.30;;;2.90;99.90;3.10;96128.00;;;;5109245;28;20425;-83
2022/02/21 00:19:55;;;;;;;7.17;5.13;;;2.90;99.90;3.20;96130.00;;;;5099213;28;20426;-84
2022/02/21 00:22:44;;;;;;;3.63;3.30;;;2.80;99.90;3.30;96128.00;;;;5105588;28;20436;-84
2022/02/21 00:25:33;;;;;;;5.40;4.07;;;2.80;99.90;3.30;96119.00;;;;5098445;28;20473;-84
2022/02/21 00:28:22;;;;;;;6.40;3.60;;;2.80;99.90;3.60;96127.00;;;;5110559;28;20428;-84
2022/02/21 00:31:12;;;;;;;4.50;3.30;;;2.80;99.90;3.80;96128.00;;;;5108397;28;20425;-85
2022/02/21 00:34:01;;;;;;;6.40;4.23;;;2.80;99.90;3.80;96127.00;;;;5107536;28;20922;-83
2022/02/21 00:36:50;;;;;;;5.27;4.33;;;2.90;99.90;4.00;96126.00;;;;5109940;28;20730;-85
2022/02/21 00:39:39;;;;;;;4.57;4.00;;;2.90;99.90;4.00;96114.00;;;;5107555;28;20788;-85
2022/02/21 00:42:28;;;;;;;4.50;4.10;;;3.00;99.90;3.70;96105.00;;;;5108398;28;20437;-84
2022/02/21 00:45:17;;;;;;;5.50;4.63;;;3.00;99.90;4.00;96094.00;;;;5105452;28;20746;-85
2022/02/21 00:48:07;;;;;;;4.63;4.10;;;3.00;99.90;3.90;96082.00;;;;5104527;28;20899;-83
2022/02/21 00:50:56;;;;;;;4.80;3.17;;;3.00;99.90;3.90;96078.00;;;;5114692;27;20428;-85
2022/02/21 00:53:45;;;;;;;4.00;3.37;;;3.00;99.90;4.00;96078.00;;;;5112273;28;20424;-85
2022/02/21 00:56:34;;;;;;;4.80;3.23;;;3.00;99.90;4.00;96065.00;;;;5111788;28;20437;-83
2022/02/21 00:59:23;;;;;;;7.43;4.73;;;3.00;99.90;3.90;96063.00;;;;5112106;28;20448;-85
2022/02/21 01:02:12;;;;;;;3.67;3.33;;;3.00;99.90;3.90;96052.00;;;;5121381;27;20823;-83
2022/02/21 01:05:03;;;;;;;5.43;3.80;;;3.00;99.90;3.50;96053.00;;;;5108458;28;20467;-84
2022/02/21 01:07:52;;;;;;;5.70;4.10;;;3.00;99.90;3.30;96041.00;;;;5114939;27;20424;-84
2022/02/21 01:10:41;;;;;;;6.83;3.47;;;2.90;99.90;3.10;96039.00;;;;5117924;27;20432;-85
2022/02/21 01:13:30;;;;;;;4.53;3.47;;;2.80;99.90;3.10;96030.00;;;;5110327;28;20420;-84
2022/02/21 01:16:19;;;;;;;6.10;4.13;;;2.80;99.90;3.00;96031.00;;;;5115457;27;20463;-84
2022/02/21 01:19:08;;;;;;;4.27;3.33;;;2.60;99.90;3.40;96047.00;;;;5128291;27;20758;-85
2022/02/21 01:21:58;;;;;;;5.53;3.90;;;2.60;99.90;3.60;96036.00;;;;5111137;28;20437;-84
2022/02/21 01:24:47;;;;;;;6.03;4.43;;;2.70;99.90;3.50;96025.00;;;;5110172;28;20957;-84
2022/02/21 01:27:36;;;;;;;5.60;3.47;;;2.70;99.90;3.40;96025.00;;;;5101256;27;20476;-84
2022/02/21 01:30:25;;;;;;;4.23;3.27;;;2.70;99.90;3.30;96032.00;;;;5111381;28;20937;-83
2022/02/21 01:33:14;;;;;;;6.10;4.20;;;2.70;99.90;3.60;96013.00;;;;5108047;28;20425;-84
2022/02/21 01:36:03;;;;;;;4.37;3.83;;;2.70;99.90;3.70;96019.00;;;;5110887;28;20436;-85
2022/02/21 01:38:53;;;;;;;6.50;4.53;;;2.70;99.90;3.40;95998.00;;;;5111308;28;20440;-84
2022/02/21 01:41:42;;;;;;;6.73;5.43;;;3.70;99.90;3.40;96001.00;;;;5110099;28;20838;-84
2022/02/21 01:44:39;;;;;;;8.83;5.50;;;2.80;99.90;3.10;95999.00;;;;5110074;28;20441;-84
2022/02/21 01:47:28;;;;;;;4.30;3.67;;;2.70;99.90;3.20;95985.00;;;;5110459;28;20460;-84
2022/02/21 01:50:17;;;;;;;7.43;4.30;;;2.70;99.90;3.40;95990.00;;;;5110333;28;20948;-84
2022/02/21 01:53:06;;;;;;;7.43;4.47;;;2.70;99.90;3.40;95967.00;;;;5110184;28;20847;-84
2022/02/21 01:55:57;;;;;;;3.83;3.43;;;2.70;99.90;3.20;95961.00;;;;5109810;28;20437;-84
2022/02/21 01:58:45;;;;;;;6.60;4.40;;;2.70;99.90;3.50;95954.00;;;;5100191;28;20809;-83
2022/02/21 02:01:37;;;;;;;4.47;3.47;;;2.70;99.90;3.60;95949.00;;;;5106265;27;20436;-84
2022/02/21 02:04:26;;;;;;;5.67;3.73;;;2.70;99.90;3.70;95944.00;;;;5110078;28;20444;-84
2022/02/21 02:07:16;;;;;;;5.00;3.60;;;2.70;99.90;3.80;95939.00;;;;5111679;28;20523;-85
2022/02/21 02:10:07;;;;;;;7.57;3.63;;;2.80;99.90;3.60;95924.00;;;;5100352;28;20421;-84
2022/02/21 02:12:57;;;;;;;5.20;3.63;;;2.80;99.90;3.60;95921.00;;;;5109247;28;20447;-84
2022/02/21 02:15:46;;;;;;;3.30;3.00;;;2.80;99.90;3.70;95912.00;;;;5110515;28;20460;-84
2022/02/21 02:18:35;;;;;;;4.10;3.63;;;2.80;99.90;3.70;95897.00;;;;5110734;28;20429;-84
2022/02/21 02:21:26;;;;;;;6.77;4.83;;;2.80;99.90;3.50;95890.00;;;;5111405;28;20435;-85
2022/02/21 02:24:16;;;;;;;4.10;3.70;;;2.80;99.90;2.90;95884.00;;;;5124599;27;20417;-84
2022/02/21 02:27:08;;;;;;;3.93;3.53;;;2.70;99.90;3.20;95861.00;;;;5111517;27;20981;-84
2022/02/21 02:29:59;;;;;;;5.77;3.60;;;2.60;99.90;3.30;95865.00;;;;5109108;28;20420;-84
2022/02/21 02:32:50;;;;;;;5.33;4.10;;;2.60;99.90;3.40;95852.00;;;;5107741;28;20424;-85
2022/02/21 02:35:43;;;;;;;6.73;4.23;;;2.60;99.90;2.60;95839.00;;;;5110887;28;20436;-86
2022/02/21 02:38:32;;;;;;;8.87;3.80;;;2.60;99.90;2.90;95830.00;;;;5111482;28;20949;-84
2022/02/21 02:41:22;;;;;;;5.43;3.40;;;2.50;99.90;2.90;95836.00;;;;5108809;28;20423;-84
2022/02/21 02:44:12;;;;;;;3.70;3.20;;;2.40;99.90;3.00;95828.00;;;;5109070;28;20433;-84
2022/02/21 02:47:01;;;;;;;5.07;4.17;;;2.40;99.90;2.50;95820.00;;;;5114238;27;20568;-83
2022/02/21 02:49:50;;;;;;;5.87;3.43;;;2.40;99.90;3.00;95837.00;;;;5110764;27;20436;-83
2022/02/21 02:52:39;;;;;;;3.83;3.40;;;2.30;99.90;2.90;95833.00;;;;5115146;27;20421;-84
2022/02/21 02:55:27;;;;;;;2.70;1.90;;;2.30;99.90;2.60;95822.00;;;;5112816;27;20961;-84
2022/02/21 02:58:18;;;;;;;5.50;3.93;;;2.30;99.90;3.00;95812.00;;;;5120129;28;20428;-84
2022/02/21 03:01:06;;;;;;;3.23;2.93;;;2.40;99.90;3.30;95819.00;;;;5117681;27;20435;-83
2022/02/21 03:03:55;;;;;;;3.80;3.17;;;2.50;99.90;3.40;95811.00;;;;5121264;27;20423;-83
2022/02/21 03:06:44;;;;;;;3.70;2.93;;;2.50;99.90;3.60;95811.00;;;;5090600;28;20929;-83
2022/02/21 03:09:33;;;;;;;7.07;3.30;;;2.50;99.90;3.60;95801.00;;;;5109231;27;20424;-83
2022/02/21 03:12:22;;;;;;;3.97;3.20;;;2.60;99.90;3.70;95799.00;;;;5108787;28;20429;-83
2022/02/21 03:15:13;;;;;;;3.73;3.00;;;2.60;99.90;3.60;95796.00;;;;5105722;28;20991;-83
2022/02/21 03:18:01;;;;;;;5.13;3.13;;;2.70;99.90;3.70;95782.00;;;;5098500;28;20420;-83
2022/02/21 03:20:50;;;;;;;5.63;4.07;;;2.70;99.90;3.30;95770.00;;;;5118526;27;20430;-84
2022/02/21 03:23:40;;;;;;;3.83;3.37;;;2.70;99.90;2.90;95777.00;;;;5108651;28;20440;-84
2022/02/21 03:26:29;;;;;;;5.27;3.33;;;2.70;99.90;2.70;95760.00;;;;5102263;28;20455;-84
2022/02/21 03:29:17;;;;;;;4.87;3.93;;;2.70;99.90;2.60;95765.00;;;;5110658;28;20794;-84
2022/02/21 03:32:09;;;;;;;4.67;3.17;;;2.60;99.90;2.40;95771.00;;;;5109757;28;20952;-84
2022/02/21 03:34:58;;;;;;;4.60;3.60;;;2.50;99.90;2.00;95753.00;;;;5110505;28;20452;-84
2022/02/21 03:37:47;;;;;;;6.20;3.20;;;2.40;99.90;2.00;95760.00;;;;5111036;28;20425;-83
2022/02/21 03:40:36;;;;;;;5.80;2.60;;;2.30;99.90;2.00;95755.00;;;;5111841;28;20787;-84
2022/02/21 03:43:24;;;;;;;6.80;3.43;;;2.30;99.90;2.40;95746.00;;;;5110867;28;20425;-85
2022/02/21 03:46:13;;;;;;;5.47;4.03;;;2.20;99.90;2.40;95736.00;;;;5110320;28;20452;-84
2022/02/21 03:49:04;;;;;;;4.77;3.90;;;2.30;99.90;2.50;95717.00;;;;5097374;28;20469;-83
2022/02/21 03:51:54;;;;;;;4.77;3.37;;;2.30;99.90;2.10;95699.00;;;;5093608;28;20424;-84
2022/02/21 03:54:43;;;;;;;4.63;3.60;;;2.30;99.90;2.20;95689.00;;;;5131152;27;20467;-83
2022/02/21 03:57:32;;;;;;;6.43;3.40;;;2.20;99.90;2.50;95691.00;;;;5113680;28;20448;-85
2022/02/21 04:00:21;;;;;;;6.57;4.13;;;2.20;99.90;2.40;95686.00;;;;5110148;28;20425;-85
2022/02/21 04:03:10;;;;;;;6.30;3.37;;;2.20;99.90;2.20;95680.00;;;;5109891;27;20436;-84
2022/02/21 04:06:00;;;;;;;3.37;3.07;;;2.20;99.90;2.10;95681.00;;;;5108249;28;20461;-84
2022/02/21 04:08:49;;;;;;;7.53;4.53;;;2.20;99.90;2.40;95667.00;;;;5109582;28;20464;-85
2022/02/21 04:11:38;;;;;;;6.00;5.00;;;2.20;99.90;2.40;95656.00;;;;5109802;28;20443;-84
2022/02/21 04:14:27;;;;;;;4.97;4.47;;;2.20;99.90;2.20;95653.00;;;;5109243;28;20845;-85
2022/02/21 04:17:15;;;;;;;4.87;4.00;;;2.20;99.90;1.90;95644.00;;;;5108837;28;20823;-85
2022/02/21 04:20:05;;;;;;;3.60;3.30;;;2.10;99.90;2.10;95641.00;;;;5109168;28;20428;-85
2022/02/21 04:22:55;;;;;;;5.00;3.73;;;2.10;99.90;2.10;95637.00;;;;5108162;28;20427;-85
2022/02/21 04:25:46;;;;;;;3.67;3.23;;;2.10;99.90;2.20;95651.00;;;;5110614;28;20448;-84
2022/02/21 04:28:34;;;;;;;5.70;3.80;;;2.10;99.90;2.40;95653.00;;;;5103700;28;20932;-84
2022/02/21 04:31:23;;;;;;;3.93;3.13;;;2.20;99.90;2.30;95640.00;;;;5109154;28;20432;-85
2022/02/21 04:34:12;;;;;;;9.00;3.33;;;2.20;99.90;2.60;95624.00;;;;5107749;28;20424;-85
2022/02/21 04:37:01;;;;;;;3.50;3.10;;;2.20;99.90;2.70;95616.00;;;;5108731;28;20809;-85
2022/02/21 04:39:51;;;;;;;4.43;3.57;;;2.30;99.90;2.80;95606.00;;;;5108793;28;20429;-85
2022/02/21 04:42:40;;;;;;;4.40;2.70;;;2.40;99.90;2.30;95594.00;;;;5106879;28;20869;-84
2022/02/21 04:45:29;;;;;;;2.90;2.60;;;2.40;99.90;2.60;95583.00;;;;5108763;28;20441;-85
2022/02/21 04:48:18;;;;;;;2.83;2.60;;;2.40;99.90;2.50;95578.00;;;;5097770;28;20498;-85
2022/02/21 04:51:07;;;;;;;4.03;3.00;;;2.40;99.90;2.20;95571.00;;;;5102151;28;20433;-85
2022/02/21 04:53:56;;;;;;;6.37;2.47;;;2.30;99.90;1.80;95590.00;;;;5111164;28;20425;-85
2022/02/21 04:56:46;;;;;;;3.70;2.77;;;2.30;99.90;1.90;95593.00;;;;5095773;28;20804;-85
2022/02/21 04:59:35;;;;;;;8.17;2.97;;;2.20;99.90;2.00;95573.00;;;;5093861;28;20445;-84
2022/02/21 05:02:24;;;;;;;5.23;3.07;;;2.10;99.90;1.80;95579.00;;;;5104366;28;20447;-85
2022/02/21 05:05:13;;;;;;;3.77;3.47;;;2.10;99.90;1.80;95559.00;;;;5103946;28;20452;-84
2022/02/21 05:08:02;;;;;;;6.13;2.57;;;2.00;99.90;2.30;95526.00;;;;5111813;27;20834;-85
2022/02/21 05:10:51;;;;;;;6.20;3.83;;;2.10;99.90;2.10;95489.00;;;;5107379;28;20429;-84
2022/02/21 05:13:41;;;;;;;9.47;3.70;;;2.10;99.90;2.50;95487.00;;;;5097880;28;20420;-84
2022/02/21 05:16:30;;;;;;;3.63;3.13;;;2.10;99.90;2.70;95497.00;;;;5106703;28;20817;-84
2022/02/21 05:19:19;;;;;;;5.67;3.10;;;2.20;99.90;2.80;95490.00;;;;5106835;28;20421;-84
2022/02/21 05:22:08;;;;;;;4.07;2.50;;;2.30;99.90;3.00;95485.00;;;;5092665;28;20430;-84
2022/02/21 05:24:57;;;;;;;3.53;3.23;;;2.40;99.90;2.30;95521.00;;;;5108327;28;20451;-85
2022/02/21 05:27:46;;;;;;;4.13;2.90;;;2.40;99.90;2.50;95518.00;;;;5106241;28;20446;-84
2022/02/21 05:30:36;;;;;;;3.07;2.77;;;2.40;99.90;2.30;95487.00;;;;5107745;28;20502;-84
2022/02/21 05:33:25;;;;;;;3.73;2.60;;;2.40;99.90;2.60;95506.00;;;;5110251;28;20920;-83
2022/02/21 05:36:14;;;;;;;6.40;2.60;;;2.40;99.90;2.90;95496.00;;;;5110004;28;20448;-84
2022/02/21 05:39:03;;;;;;;6.57;3.37;;;2.40;99.90;3.00;95492.00;;;;5109799;28;20428;-84
2022/02/21 05:41:52;;;;;;;4.13;3.07;;;2.50;99.90;3.10;95472.00;;;;5109213;28;20429;-84
2022/02/21 05:44:41;;;;;;;3.20;2.33;;;2.50;99.90;3.10;95471.00;;;;5109900;28;20467;-84
2022/02/21 05:47:31;;;;;;;3.90;3.50;;;2.60;99.90;3.10;95458.00;;;;5107515;27;20428;-84
2022/02/21 05:50:20;;;;;;;7.57;3.13;;;2.60;99.90;2.70;95458.00;;;;5095892;28;20413;-85
2022/02/21 05:53:09;;;;;;;3.33;2.57;;;2.60;99.90;2.70;95467.00;;;;5108373;28;20432;-84
2022/02/21 05:55:58;;;;;;;3.97;3.20;;;2.60;99.90;3.00;95449.00;;;;5114246;27;20463;-84
2022/02/21 05:58:47;;;;;;;5.83;2.87;;;2.70;99.90;3.30;95437.00;;;;5109644;28;20444;-84
2022/02/21 06:01:36;;;;;;;3.47;2.73;;;2.70;99.90;3.10;95465.00;;;;5109164;27;20444;-85
2022/02/21 06:04:26;;;;;;;2.60;2.40;;;2.80;99.90;3.00;95472.00;;;;5100281;28;20820;-84
2022/02/21 06:07:17;;;;;;;3.07;2.77;;;2.80;99.90;2.80;95482.00;;;;5115618;28;20429;-84
2022/02/21 06:10:07;;;;;;;9.87;2.97;;;2.80;99.90;2.70;95469.00;;;;5118680;28;20472;-85
2022/02/21 06:12:55;;;;;;;6.20;2.87;;;2.70;99.90;2.70;95460.00;;;;5108804;28;20416;-84
2022/02/21 06:15:44;;;;;;;4.23;2.60;;;2.70;99.90;2.60;95471.00;;;;5109886;28;20453;-85
2022/02/21 06:18:36;;;;;;;5.20;3.07;;;2.60;99.90;2.20;95454.00;;;;5105479;28;21036;-85
2022/02/21 06:21:28;;;;;;;3.50;3.13;;;2.60;99.90;2.50;95471.00;;;;5106693;28;20433;-85
2022/02/21 06:24:17;;;;;;;4.23;3.17;;;2.50;99.90;2.60;95461.00;;;;5102084;28;20787;-84
2022/02/21 06:27:06;;;;;;;4.40;3.17;;;2.60;99.90;2.60;95467.00;;;;5108361;28;20428;-84
2022/02/21 06:29:55;;;;;;;5.20;3.50;;;2.50;99.90;2.80;95451.00;;;;5101597;28;20471;-84
2022/02/21 06:32:44;;;;;;;5.27;2.93;;;2.60;99.90;3.00;95453.00;;;;5089372;28;20438;-84
2022/02/21 06:35:33;;;;;;;6.33;4.63;;;2.60;99.90;2.80;95452.00;;;;5099139;28;21009;-84
2022/02/21 06:38:23;;;;;;;17.37;9.87;;;2.60;99.90;2.80;95470.00;;;;5100405;28;20454;-85
2022/02/21 06:41:14;;;;;;;17.13;10.50;;;2.60;99.90;2.70;95465.00;;;;5108890;28;20940;-84
2022/02/21 06:44:03;;;;;;;6.10;4.83;;;2.60;99.90;2.60;95463.00;;;;5096190;28;20421;-84
2022/02/21 06:46:52;;;;;;;6.03;3.97;;;2.60;99.90;2.40;95463.00;;;;5098399;28;20425;-85
2022/02/21 06:49:41;;;;;;;5.53;4.63;;;2.60;99.90;2.20;95473.00;;;;5102327;28;20928;-84
2022/02/21 06:52:30;;;;;;;6.57;5.30;;;2.50;99.90;2.60;95473.00;;;;5106404;28;20435;-83
2022/02/21 06:55:21;;;;;;;8.10;6.60;;;2.50;99.90;2.80;95470.00;;;;5108410;27;20441;-84
2022/02/21 06:58:10;;;;;;;10.27;6.53;;;2.50;99.90;2.90;95463.00;;;;5104968;28;20444;-84
2022/02/21 07:00:59;;;;;;;10.33;7.70;;;2.60;99.90;2.90;95465.00;;;;5107655;27;20451;-84
2022/02/21 07:03:49;;;;;;;13.53;8.07;;;2.60;99.90;2.70;95466.00;;;;5092475;28;20422;-84
2022/02/21 07:06:38;;;;;;;5.00;3.33;;;2.70;99.90;2.60;95468.00;;;;5097540;28;20437;-85
2022/02/21 07:09:26;;;;;;;6.57;3.63;;;2.70;99.90;2.50;95458.00;;;;5113268;27;20495;-85
2022/02/21 07:12:17;;;;;;;5.53;2.97;;;2.70;99.90;2.70;95464.00;;;;5100484;28;20818;-84
2022/02/21 07:15:07;;;;;;;4.63;3.17;;;2.70;99.90;2.80;95461.00;;;;5095000;28;21612;-84
2022/02/21 07:17:57;;;;;;;2.57;2.30;;;2.70;99.90;2.80;95448.00;;;;5095319;28;20429;-86
2022/02/21 07:20:46;;;;;;;3.43;2.63;;;2.70;99.90;2.90;95444.00;;;;5110751;27;20435;-85
2022/02/21 07:23:36;;;;;;;6.23;4.87;;;2.70;99.90;3.30;95453.00;;;;5106477;27;20438;-84
2022/02/21 07:26:25;;;;;;;11.00;7.80;;;2.80;99.90;3.20;95448.00;;;;5096759;28;20455;-84
2022/02/21 07:29:16;;;;;;;4.27;3.17;;;2.90;99.90;3.10;95459.00;;;;5114524;27;20991;-85
2022/02/21 07:32:06;;;;;;;4.03;2.70;;;2.90;99.90;3.10;95462.00;;;;5102762;28;20795;-85
2022/02/21 07:34:55;;;;;;;4.03;2.87;;;3.00;99.90;3.40;95471.00;;;;5094598;28;20480;-84
2022/02/21 07:37:57;;;;;;;5.53;2.87;;;3.00;99.90;3.60;95465.00;;;;5114481;27;20447;-84
2022/02/21 07:40:56;;;;;;;8.50;3.43;;;3.10;99.90;3.90;95469.00;;;;5093880;28;20821;-83
2022/02/21 07:43:46;;;;;;;4.13;3.27;;;3.20;99.90;4.00;95476.00;;;;5090262;27;20436;-83
2022/02/21 07:46:36;;;;;;;5.90;3.43;;;3.30;99.90;4.00;95470.00;;;;5100062;28;20828;-83
2022/02/21 07:49:25;;;;;;;4.07;3.60;;;3.40;99.90;3.90;95473.00;;;;5123820;27;20479;-84
2022/02/21 07:52:14;;;;;;;5.27;3.43;;;3.50;99.90;3.90;95479.00;;;;5094991;28;20439;-84
2022/02/21 07:55:04;;;;;;;7.33;4.53;;;3.60;99.90;3.90;95468.00;;;;5099084;27;20457;-84
2022/02/21 07:57:53;;;;;;;4.27;3.40;;;3.60;99.90;4.00;95461.00;;;;5097180;28;20463;-84
2022/02/21 08:00:42;;;;;;;4.27;3.57;;;3.70;99.90;3.90;95465.00;;;;5096053;28;20422;-83
2022/02/21 08:03:36;;;;;;;9.27;3.83;;;3.70;99.90;4.40;95469.00;;;;5092599;28;20422;-84
2022/02/21 08:06:25;;;;;;;6.57;3.70;;;3.80;99.90;4.70;95472.00;;;;5115229;27;20442;-84
2022/02/21 08:09:14;;;;;;;4.07;3.00;;;3.90;99.90;4.70;95450.00;;;;5118254;27;20476;-84
2022/02/21 08:12:07;;;;;;;4.33;3.63;;;4.00;99.90;4.50;95458.00;;;;5117562;27;20437;-85
2022/02/21 08:14:55;;;;;;;3.87;2.83;;;4.10;99.90;4.00;95458.00;;;;5099264;28;20400;-84
2022/02/21 08:17:48;;;;;;;3.70;2.97;;;4.10;99.90;4.20;95458.00;;;;5094463;28;20448;-84
2022/02/21 08:20:38;;;;;;;3.73;2.93;;;4.20;99.90;4.50;95463.00;;;;5093622;28;21000;-85
2022/02/21 08:23:27;;;;;;;5.87;3.60;;;4.20;99.90;4.70;95444.00;;;;5107512;28;20214;-85
2022/02/21 08:26:19;;;;;;;3.67;3.27;;;4.20;99.90;4.40;95443.00;;;;5106719;28;20879;-85
2022/02/21 08:29:07;;;;;;;4.07;2.60;;;4.30;99.90;4.40;95432.00;;;;5107428;28;20206;-85
2022/02/21 08:31:56;;;;;;;3.37;2.50;;;4.30;99.90;4.30;95418.00;;;;5106428;28;20440;-84
2022/02/21 08:34:46;;;;;;;3.00;2.70;;;4.20;99.90;4.50;95419.00;;;;5106256;28;20440;-84
2022/02/21 08:37:37;;;;;;;12.37;6.43;;;4.20;99.90;4.50;95421.00;;;;5105810;28;20570;-84
2022/02/21 08:40:26;;;;;;;6.40;3.47;;;4.30;99.90;4.60;95407.00;;;;5107505;28;20451;-85
2022/02/21 08:43:15;;;;;;;4.10;2.93;;;4.30;99.90;4.70;95417.00;;;;5105791;28;20447;-85
2022/02/21 08:46:05;;;;;;;3.90;3.20;;;4.40;99.90;4.70;95411.00;;;;5108562;28;20437;-84
2022/02/21 08:49:10;;;;;;;3.87;2.90;;;4.40;99.90;4.70;95408.00;;;;5097785;28;20618;-85
2022/02/21 08:51:59;;;;;;;2.93;2.50;;;4.40;99.90;4.90;95401.00;;;;5095476;28;20207;-84
2022/02/21 08:54:50;;;;;;;4.47;3.47;;;4.50;99.90;5.00;95398.00;;;;5112595;28;20221;-85
2022/02/21 08:57:39;;;;;;;5.87;3.00;;;4.60;99.90;5.10;95400.00;;;;5106734;28;20452;-85
2022/02/21 09:00:28;;;;;;;5.57;2.70;;;4.70;99.90;5.10;95392.00;;;;5108665;28;20205;-86
2022/02/21 09:03:18;;;;;;;4.43;3.37;;;4.80;99.90;5.20;95390.00;;;;5093891;28;20629;-85
2022/02/21 09:06:08;;;;;;;4.87;3.33;;;4.80;99.90;5.30;95377.00;;;;5109399;28;20223;-85
2022/02/21 09:08:57;;;;;;;5.23;3.03;;;4.90;99.90;5.40;95379.00;;;;5110338;27;20226;-85
2022/02/21 09:11:47;;;;;;;5.63;3.10;;;5.00;99.90;5.70;95379.00;;;;5100854;28;20231;-84
2022/02/21 09:14:36;;;;;;;8.43;3.63;;;5.10;99.90;5.80;95395.00;;;;5114087;28;20218;-88
2022/02/21 09:17:25;;;;;;;4.57;3.60;;;5.50;99.90;5.80;95390.00;;;;5110581;28;20199;-84
2022/02/21 09:20:15;;;;;;;5.63;3.30;;;5.30;99.90;6.20;95398.00;;;;5114701;27;20209;-85
2022/02/21 09:23:04;;;;;;;4.77;3.00;;;5.40;99.90;6.50;95412.00;;;;5112272;27;20361;-83
2022/02/21 09:25:54;;;;;;;5.23;3.63;;;5.60;99.90;6.50;95415.00;;;;5099730;28;20229;-83
2022/02/21 09:28:44;;;;;;;4.17;3.20;;;5.70;99.90;6.60;95426.00;;;;5103633;27;20217;-83
2022/02/21 09:31:33;;;;;;;6.60;3.93;;;5.90;99.90;6.40;95432.00;;;;5105714;28;20221;-85
2022/02/21 09:34:22;;;;;;;4.07;3.07;;;6.00;99.90;6.40;95412.00;;;;5102342;28;20217;-88
2022/02/21 09:37:11;;;;;;;4.00;3.10;;;6.10;99.90;6.90;95408.00;;;;5117538;27;20206;-84
2022/02/21 09:40:00;;;;;;;7.73;3.27;;;6.20;99.90;7.10;95408.00;;;;5106855;28;20601;-83
2022/02/21 09:42:51;;;;;;;4.90;2.70;;;6.30;99.90;7.60;95419.00;;;;5103369;28;20202;-84
2022/02/21 09:45:43;;;;;;;5.30;3.50;;;6.50;99.90;7.80;95412.00;;;;5102448;28;20226;-84
2022/02/21 09:48:35;;;;;;;5.90;4.10;;;6.70;99.90;7.90;95410.00;;;;5113739;28;20210;-87
2022/02/21 09:51:24;;;;;;;7.37;3.17;;;6.90;99.90;8.10;95414.00;;;;5116712;28;20237;-87
2022/02/21 09:54:14;;;;;;;9.17;4.07;;;7.10;99.90;8.20;95420.00;;;;5121161;27;20705;-85
2022/02/21 09:57:03;;;;;;;6.73;3.77;;;7.30;99.90;8.30;95426.00;;;;5099862;28;20230;-87
2022/02/21 09:59:52;;;;;;;9.67;3.97;;;7.40;99.90;8.20;95428.00;;;;5109364;28;20206;-82
2022/02/21 10:02:46;;;;;;;19.37;5.57;;;7.50;99.90;8.20;95418.00;;;;5104912;28;20225;-85
2022/02/21 10:05:35;;;;;;;10.73;4.03;;;7.50;99.90;8.30;95439.00;;;;5104024;28;20222;-87
2022/02/21 10:08:24;;;;;;;13.33;3.90;;;7.50;99.90;8.30;95464.00;;;;5103583;27;20225;-88
2022/02/21 10:11:23;;;;;;;5.67;3.33;;;7.60;99.90;8.20;95488.00;;;;5102901;27;20224;-86
2022/02/21 10:14:14;;;;;;;27.63;5.73;;;7.60;99.90;8.00;95490.00;;;;5122525;27;20201;-87
2022/02/21 10:17:04;;;;;;;5.43;3.80;;;7.60;99.90;8.00;95501.00;;;;5117294;27;20222;-86
2022/02/21 10:20:07;;;;;;;6.80;2.80;;;7.60;99.90;8.60;95520.00;;;;5104799;27;20247;-84
2022/02/21 10:23:04;;;;;;;12.30;3.87;;;7.70;99.90;9.10;95515.00;;;;5097894;28;20205;-86
2022/02/21 10:25:58;;;;;;;4.20;3.03;;;7.90;99.90;9.80;95501.00;;;;5122248;27;20218;-84
2022/02/21 10:28:47;;;;;;;3.83;2.53;;;8.30;99.90;10.20;95506.00;;;;5114703;27;20209;-87
2022/02/21 10:31:37;;;;;;;11.80;3.47;;;8.70;99.90;10.80;95496.00;;;;5107770;28;20596;-86
2022/02/21 10:34:36;;;;;;;3.60;2.50;;;9.10;99.90;11.20;95514.00;;;;5100974;28;20241;-85
2022/02/21 10:37:29;;;;;;;3.23;2.33;;;9.60;99.90;11.00;95509.00;;;;5114016;27;20199;-85
2022/02/21 10:40:20;;;;;;;3.20;2.60;;;9.80;99.90;12.20;95506.00;;;;5099953;28;20663;-86
2022/02/21 10:43:11;;;;;;;5.50;2.93;;;10.30;99.90;12.10;95546.00;;;;5103118;28;20211;-83
2022/02/21 10:46:15;;;;;;;3.70;1.83;;;10.70;99.90;11.40;95530.00;;;;5116635;28;20234;-86
2022/02/21 10:49:33;;;;;;;1.47;1.07;;;10.80;94.80;11.40;95550.00;;;;5109226;28;20201;-86
2022/02/21 10:52:32;;;;;;;2.77;2.33;;;10.90;92.00;10.60;95555.00;;;;5109899;27;20218;-85
2022/02/21 10:55:21;;;;;;;5.07;0.93;;;10.70;84.00;10.80;95538.00;;;;5105157;28;20226;-84
2022/02/21 10:58:19;;;;;;;0.70;0.57;;;10.60;83.50;11.00;95576.00;;;;5102393;28;20214;-83
2022/02/21 11:01:10;;;;;;;1.40;0.50;;;10.60;81.30;11.00;95588.00;;;;5106624;28;20211;-87
2022/02/21 11:04:00;;;;;;;0.50;0.50;;;10.60;79.70;11.10;95583.00;;;;5112407;28;20202;-87
2022/02/21 11:06:49;;;;;;;0.30;0.30;;;10.50;79.50;10.20;95585.00;;;;5096572;28;20207;-85
2022/02/21 11:09:41;;;;;;;0.93;0.70;;;10.40;75.80;10.20;95601.00;;;;5108433;28;20211;-87
2022/02/21 11:12:37;;;;;;;0.67;0.40;;;10.20;75.90;10.30;95610.00;;;;5102716;28;20227;-85
2022/02/21 11:15:29;;;;;;;0.50;0.50;;;10.10;76.10;10.20;95594.00;;;;5114503;27;20228;-85
2022/02/21 11:18:20;;;;;;;0.50;0.30;;;9.90;76.00;10.10;95609.00;;;;5129495;27;20210;-87
2022/02/21 11:21:10;;;;;;;0.47;0.20;;;9.70;75.00;9.80;95616.00;;;;5099145;28;20199;-87
2022/02/21 11:23:59;;;;;;;1.93;0.40;;;9.60;75.50;9.30;95595.00;;;;5112744;28;20206;-86
2022/02/21 11:27:04;;;;;;;9.20;0.77;;;9.40;73.80;9.60;95593.00;;;;5102967;28;20620;-87
2022/02/21 11:30:07;;;;;;;0.33;0.30;;;9.20;74.10;9.20;95600.00;;;;5102678;27;20761;-86
2022/02/21 11:33:06;;;;;;;0.30;0.30;;;9.10;72.90;9.40;95599.00;;;;5104292;27;20215;-87
2022/02/21 11:36:05;;;;;;;0.63;0.50;;;9.00;73.00;9.40;95599.00;;;;5101018;28;20219;-86
2022/02/21 11:38:56;;;;;;;0.50;0.40;;;8.90;72.40;9.20;95607.00;;;;5112545;28;20205;-87
2022/02/21 11:41:45;;;;;;;0.20;0.20;;;8.90;72.20;9.00;95607.00;;;;5099103;28;20277;-85
2022/02/21 11:44:53;;;;;;;1.37;0.20;;;8.80;71.60;9.20;95605.00;;;;5105406;27;20226;-86
2022/02/21 11:47:46;;;;;;;2.63;0.30;;;8.80;72.50;9.00;95613.00;;;;5117767;27;20202;-86
2022/02/21 11:50:35;;;;;;;0.20;0.20;;;8.70;72.30;8.70;95622.00;;;;5126281;27;20564;-86
2022/02/21 11:53:26;;;;;;;0.30;0.30;;;8.60;71.40;8.60;95607.00;;;;5115290;27;20581;-88
2022/02/21 11:56:16;;;;;;;0.30;0.30;;;8.50;72.10;9.10;95622.00;;;;5104699;27;20218;-84
2022/02/21 11:59:25;;;;;;;0.30;0.30;;;8.50;73.20;8.70;95631.00;;;;5100239;28;20228;-84
2022/02/21 12:02:17;;;;;;;0.20;0.20;;;8.50;73.30;8.50;95632.00;;;;5102268;28;20652;-83
2022/02/21 12:05:21;;;;;;;0.30;0.30;;;8.40;72.50;8.60;95640.00;;;;5111979;27;20305;-83
2022/02/21 12:08:20;;;;;;;0.30;0.30;;;8.30;73.40;8.50;95638.00;;;;5107524;28;20194;-84
2022/02/21 12:11:17;;;;;;;0.40;0.30;;;8.20;73.50;8.20;95642.00;;;;5097125;28;20227;-82
2022/02/21 12:14:23;;;;;;;0.93;0.33;;;8.10;72.80;8.20;95623.00;;;;5103452;28;20592;-83
2022/02/21 12:17:11;;;;;;;0.30;0.20;;;8.10;71.90;8.30;95636.00;;;;5097096;28;20687;-82
2022/02/21 12:20:39;;;;;;;0.30;0.30;;;8.00;72.70;8.40;95624.00;;;;5110283;28;20217;-82
2022/02/21 12:23:28;;;;;;;0.30;0.30;;;7.90;72.40;8.50;95636.00;;;;5107800;28;20209;-82
2022/02/21 12:26:20;;;;;;;0.30;0.30;;;7.90;72.70;8.60;95637.00;;;;5108312;28;20226;-87
2022/02/21 12:29:15;;;;;;;0.47;0.30;;;7.90;72.30;8.70;95632.00;;;;5108958;28;20213;-85
2022/02/21 12:32:07;;;;;;;0.30;0.30;;;7.90;73.20;8.20;95628.00;;;;5109066;28;20698;-83
2022/02/21 12:34:59;;;;;;;0.30;0.30;;;7.90;70.20;8.20;95605.00;;;;5109283;28;20606;-83
2022/02/21 12:37:50;;;;;;;0.70;0.40;;;7.90;69.10;8.40;95596.00;;;;5103591;28;20359;-83
2022/02/21 12:40:51;;;;;;;0.23;0.23;;;7.80;69.30;7.80;95591.00;;;;5106405;28;20597;-87
2022/02/21 12:43:56;;;;;;;1.90;0.87;;;7.70;63.40;8.30;95591.00;;;;5111410;28;20198;-83
2022/02/21 12:46:50;;;;;;;2.03;1.40;;;7.80;66.30;8.50;95580.00;;;;5113241;28;20196;-84
2022/02/21 12:49:42;;;;;;;0.30;0.30;;;7.80;64.60;8.50;95571.00;;;;5113917;28;20202;-87
2022/02/21 12:52:31;;;;;;;0.80;0.37;;;7.90;60.50;8.40;95583.00;;;;5114713;28;20443;-86